DIRECCIÓN GENERAL DE AERONÁUTICA CIVIL
DIRECCIÓN METEOROLÓGICA DE CHILE
INFORMACIÓN METAR Y TAF

FIR PUERTO MONTT

Estación: SCQP
METAR SCQP 302000Z 22009KT 9999 BKN028 BKN035 15/09 Q1020=

TAF SCQP 301616Z 3018/0118 29008KT 9999 FEW020 BKN030 TX16/3019Z TN04/0110Z BECMG 3020/3022 22007KT SCT030 BECMG 0104/0106 VRB02KT 5000 BR BKN010 TEMPO 0109/0112 0600 FG OVC002 BECMG 0114/0116 22006KT 9999 NSW SCT020=

Estación: SCVD
METAR SCVD 302000Z 29009KT 260V320 9999 BKN030 14/08 Q1020=

TAF SCVD 301022Z 3012/3024 03010KT 9999 BKN030 TN11/3012Z TX15/3019Z TEMPO 3012/3016 5000 -SHRA BKN020 BECMG 3016/3018 30007KT SCT040=

Estación: SCJO
METAR SCJO 302000Z 27007KT 9999 -SHRA FEW020 BKN035 BKN100 14/06 Q1019=

TAF SCJO 301023Z 3012/3024 02010KT 9999 BKN030 TN11/3012Z TX15/3019Z TEMPO 3012/3016 6000 -SHRA BKN020 BECMG 3018/3020 29007KT SCT040=

Estación: SCTE
METAR SCTE 302000Z 31005KT 9999 OVC050 11/09 Q1019 RESHRA NOSIG=

TAF SCTE 301617Z 3018/0118 34008KT 9999 BKN040 TX15/3019Z TN05/0110Z TEMPO 3018/3021 7000 -SHRA BKN025 BECMG 3021/3023 28008KT SCT030 BECMG 0102/0104 VRB02KT 5000 BR OVC015 TEMPO 0108/0112 00000KT 0700 FG OVC004 BECMG 0114/0116 18005KT 9999 NSW SCT020=

Estación: SCPQ
METAR SCPQ 302000Z AUTO 34013KT 9999 BKN006 BKN008 10/09 Q1016=

TAF SCPQ 301030Z 3012/3024 02012KT 9999 BKN020 TN10/3012Z TX14/3019Z TEMPO 3012/3016 6000 -SHRA BKN008 BECMG 3018/3020 32010KT SCT040=

Estación: SCON
METAR SCON 302000Z AUTO 01004KT 310V070 CAVOK 13/11 Q1015=

TAF SCON NIL=

Estación: SCTN
METAR SCTN 302000Z 36014KT 9999 -SHRA OVC040 11/10 Q1017=

TAF SCTN 301029Z 3012/3024 35007KT 9999 BKN030 TN12/3012Z TX14/3019Z BECMG 3013/3015 6000 SHRA BKN010 BECMG 3018/3020 29007KT=

Estación: SCFT
METAR SCFT 302000Z AUTO 24006KT 170V290 //// 13/05 Q1016=

TAF SCFT NIL=

Estación: SCAP
METAR SCAP 302000Z AUTO VRB05KT 5000 // FEW037 15/06 Q1020=

TAF SCAP NIL=

Estación: SCMK
METAR SCMK 302000Z 02010KT 5000 RA OVC018 11/09 Q1014=

TAF SCMK 301026Z 3012/3024 01015KT 9999 BKN030 TN11/3012Z TX14/3019Z BECMG 3016/3018 6000 SHRA BKN010=

Estación: SCAS
METAR SCAS 301900Z 00000KT 9999 -RA SCT010 OVC033 13/11 Q1014=

TAF SCAS NIL=

Estación: SCCY
METAR SCCY 302000Z 08003KT 8000 -RA SCT010 OVC030 10/08 Q1013=

TAF SCCY 301027Z 3012/3024 01005KT 9999 -SHRA BKN025 TN10/3012Z TX14/3019Z TEMPO 3014/3018 30005KT 5000 SHRA BKN020=

Estación: SCBA
METAR SCBA 302000Z 31008KT 9999 -RA FEW030 OVC040 09/07 Q1014=

TAF SCBA 301618Z 3018/0118 29008KT 9999 SCT020 BKN035 TX12/3019Z TN05/0110Z TEMPO 3019/0100 7000 -RA -SHRA BKN025 OVC050 BECMG 0102/0104 BKN030 BECMG 0112/0114 30020KT SCT040=

Estación: SCCC
METAR SCCC 301900Z 17005KT 9999 VCSH SCT040 OVC050 13/07 Q1014=

TAF SCCC NIL=

Estación: SCHR
METAR SCHR 301500Z 28005KT 9999 -RA BKN030 OVC050 11/06 Q1012=

TAF AMD SCHR 301429Z 3015/0100 VRB03KT 8000 -RA BKN035 TX11/3018Z TN05/0100Z TEMPO 3022/0100 9999 NSW FEW040=


Volver